createdAt,value
2022-12-17T00:02:16.175Z,6.03
2022-12-17T00:05:39.952Z,5.47
2022-12-17T00:09:03.601Z,5.07
2022-12-17T00:12:32.890Z,5.27
2022-12-17T00:15:57.656Z,6.50
2022-12-17T00:19:18.096Z,9.57
2022-12-17T00:22:42.369Z,13.17
2022-12-17T00:26:10.163Z,12.43
2022-12-17T00:29:34.335Z,12.07
2022-12-17T00:32:59.251Z,7.80
2022-12-17T00:36:23.537Z,9.03
2022-12-17T00:39:47.613Z,8.53
2022-12-17T00:43:18.546Z,8.73
2022-12-17T00:46:42.576Z,8.90
2022-12-17T00:50:07.568Z,8.93
2022-12-17T00:53:31.386Z,9.77
2022-12-17T00:56:56.337Z,8.63
2022-12-17T01:00:20.533Z,7.77
2022-12-17T01:03:44.368Z,8.63
2022-12-17T01:07:09.549Z,9.67
2022-12-17T01:10:33.344Z,11.10
2022-12-17T01:13:57.172Z,10.63
2022-12-17T01:17:32.573Z,12.10
2022-12-17T01:20:56.145Z,11.37
2022-12-17T01:24:21.310Z,10.63
2022-12-17T01:27:44.925Z,12.27
2022-12-17T01:31:08.886Z,10.63
2022-12-17T01:34:32.937Z,13.97
2022-12-17T01:37:57.041Z,9.43
2022-12-17T01:41:23.575Z,9.50
2022-12-17T01:45:14.787Z,7.73
2022-12-17T01:48:41.140Z,10.20
2022-12-17T01:52:04.874Z,8.90
2022-12-17T01:55:29.069Z,10.73
2022-12-17T01:58:55.093Z,11.33
2022-12-17T02:02:18.928Z,11.80
2022-12-17T02:05:51.770Z,9.30
2022-12-17T02:09:24.461Z,8.77
2022-12-17T02:12:56.441Z,7.07
2022-12-17T02:16:27.870Z,6.63
2022-12-17T02:20:03.239Z,8.93
2022-12-17T02:23:39.487Z,8.13
2022-12-17T02:27:06.893Z,7.67
2022-12-17T02:30:30.933Z,8.57
2022-12-17T02:33:55.054Z,6.17
2022-12-17T02:37:18.983Z,6.67
2022-12-17T02:40:44.380Z,6.57
2022-12-17T02:44:11.612Z,6.70
2022-12-17T02:47:37.649Z,7.97
2022-12-17T02:51:09.789Z,6.67
2022-12-17T02:54:33.352Z,6.97
2022-12-17T02:57:57.379Z,6.27
2022-12-17T03:01:23.234Z,7.33
2022-12-17T03:04:47.354Z,6.50
2022-12-17T03:08:11.499Z,6.00
2022-12-17T03:11:35.527Z,6.73
2022-12-17T03:14:59.503Z,6.33
2022-12-17T03:18:24.763Z,6.73
2022-12-17T03:21:48.705Z,7.53
2022-12-17T03:25:27.396Z,52.90
2022-12-17T03:28:51.090Z,26.83
2022-12-17T03:32:25.891Z,10.97
2022-12-17T03:35:51.418Z,8.40
2022-12-17T03:39:15.226Z,15.50
2022-12-17T03:42:39.350Z,16.90
2022-12-17T03:46:11.094Z,17.57
2022-12-17T03:49:35.222Z,14.30
2022-12-17T03:53:00.233Z,9.03
2022-12-17T03:56:23.957Z,9.87
2022-12-17T03:59:48.003Z,9.47
2022-12-17T04:03:12.315Z,9.80
2022-12-17T04:06:36.409Z,11.13
2022-12-17T04:10:01.085Z,11.03
2022-12-17T04:13:25.172Z,8.40
2022-12-17T04:16:49.443Z,7.20
2022-12-17T04:20:12.685Z,7.90
2022-12-17T04:23:36.788Z,11.00
2022-12-17T04:27:01.855Z,8.97
2022-12-17T04:30:26.946Z,7.63
2022-12-17T04:33:50.885Z,4.77
2022-12-17T04:37:14.636Z,4.80
2022-12-17T04:40:38.440Z,4.03
2022-12-17T04:44:03.799Z,5.53
2022-12-17T04:47:32.128Z,6.47
2022-12-17T04:50:55.863Z,3.70
2022-12-17T04:54:16.404Z,5.17
2022-12-17T04:57:41.953Z,5.53
2022-12-17T05:01:09.423Z,12.07
2022-12-17T05:04:33.492Z,6.63
2022-12-17T05:07:57.610Z,5.50
2022-12-17T05:11:22.642Z,7.50
2022-12-17T05:14:46.516Z,5.77
2022-12-17T05:18:11.785Z,3.73
2022-12-17T05:21:35.992Z,3.40
2022-12-17T05:24:59.968Z,3.77
2022-12-17T05:28:24.347Z,7.50
2022-12-17T05:31:47.985Z,6.97
2022-12-17T05:35:12.833Z,6.37
2022-12-17T05:38:36.870Z,4.43
2022-12-17T05:42:00.437Z,4.07
2022-12-17T05:45:24.820Z,3.80
2022-12-17T05:48:49.607Z,6.33
2022-12-17T05:52:26.581Z,5.83
2022-12-17T05:55:49.968Z,3.10
2022-12-17T05:59:13.744Z,4.27
2022-12-17T06:02:37.635Z,5.03
2022-12-17T06:06:01.933Z,4.30
2022-12-17T06:09:26.950Z,6.03
2022-12-17T06:12:51.307Z,4.93
2022-12-17T06:16:15.016Z,6.93
2022-12-17T06:19:39.179Z,9.90
2022-12-17T06:23:02.875Z,9.53
2022-12-17T06:26:27.509Z,10.87
2022-12-17T06:29:51.260Z,11.53
2022-12-17T06:33:22.624Z,10.53
2022-12-17T06:36:46.757Z,15.77
2022-12-17T06:40:10.776Z,11.40
2022-12-17T06:43:37.794Z,10.93
2022-12-17T06:47:01.883Z,7.63
2022-12-17T06:50:26.194Z,7.27
2022-12-17T06:53:58.092Z,7.60
2022-12-17T06:57:21.774Z,8.60
2022-12-17T07:00:46.983Z,7.40
2022-12-17T07:04:11.080Z,14.53
2022-12-17T07:07:34.996Z,13.73
2022-12-17T07:10:58.720Z,19.13
2022-12-17T07:14:22.452Z,16.87
2022-12-17T07:17:47.025Z,15.80
2022-12-17T07:21:12.440Z,13.30
2022-12-17T07:24:36.778Z,12.97
2022-12-17T07:28:00.415Z,12.67
2022-12-17T07:31:24.148Z,15.00
2022-12-17T07:34:49.911Z,16.33
2022-12-17T07:38:20.451Z,18.70
2022-12-17T07:41:44.865Z,17.93
2022-12-17T07:45:08.629Z,15.50
2022-12-17T07:48:32.828Z,17.60
2022-12-17T07:51:58.047Z,16.03
2022-12-17T07:55:22.311Z,21.40
2022-12-17T07:58:45.905Z,18.63
2022-12-17T08:02:10.129Z,26.27
2022-12-17T08:05:34.615Z,18.83
2022-12-17T08:08:59.825Z,13.40
2022-12-17T08:12:23.698Z,14.30
2022-12-17T08:16:02.090Z,18.37
2022-12-17T08:19:25.784Z,27.83
2022-12-17T08:22:49.260Z,33.53
2022-12-17T08:26:13.900Z,39.27
2022-12-17T08:29:37.972Z,35.40
2022-12-17T08:33:01.921Z,38.30
2022-12-17T08:36:25.518Z,44.57
2022-12-17T08:39:49.241Z,19.37
2022-12-17T08:43:16.565Z,19.27
2022-12-17T08:46:40.495Z,13.37
2022-12-17T08:50:04.550Z,13.33
2022-12-17T08:53:34.616Z,18.47
2022-12-17T08:56:59.223Z,16.47
2022-12-17T09:00:26.093Z,20.23
2022-12-17T09:03:55.361Z,24.77
2022-12-17T09:07:19.061Z,14.83
2022-12-17T09:10:42.881Z,14.57
2022-12-17T09:14:06.892Z,16.57
2022-12-17T09:17:31.740Z,16.83
2022-12-17T09:20:55.499Z,22.83
2022-12-17T09:24:19.730Z,22.27
2022-12-17T09:27:55.723Z,29.30
2022-12-17T09:31:19.933Z,24.13
2022-12-17T09:34:41.497Z,16.27
2022-12-17T09:38:10.909Z,10.20
2022-12-17T09:41:44.192Z,14.47
2022-12-17T09:45:11.905Z,14.10
2022-12-17T09:48:42.110Z,13.20
2022-12-17T09:52:07.664Z,13.67
2022-12-17T09:55:31.797Z,18.13
2022-12-17T09:58:57.271Z,17.33
2022-12-17T10:02:22.294Z,29.73
2022-12-17T10:05:49.874Z,20.63
2022-12-17T10:09:17.993Z,24.53
2022-12-17T10:12:41.886Z,26.00
2022-12-17T10:16:05.983Z,13.67
2022-12-17T10:19:34.332Z,15.90
2022-12-17T10:23:02.961Z,18.20
2022-12-17T10:26:24.257Z,20.20
2022-12-17T10:29:52.428Z,20.87
2022-12-17T10:33:16.664Z,29.80
2022-12-17T10:36:42.415Z,20.37
2022-12-17T10:40:14.358Z,13.83
2022-12-17T10:43:48.565Z,22.13
2022-12-17T10:47:16.064Z,20.33
2022-12-17T10:50:41.069Z,16.87
2022-12-17T10:54:08.572Z,21.50
2022-12-17T10:57:42.991Z,15.53
2022-12-17T11:01:08.399Z,13.57
2022-12-17T11:04:44.289Z,22.63
2022-12-17T11:08:08.678Z,13.13
2022-12-17T11:11:33.423Z,17.70
2022-12-17T11:15:07.020Z,15.63
2022-12-17T11:18:38.021Z,15.73
2022-12-17T11:22:04.052Z,17.20
2022-12-17T11:25:50.777Z,27.83
2022-12-17T11:29:14.575Z,22.33
2022-12-17T11:32:59.379Z,18.20
2022-12-17T11:36:38.796Z,19.20
2022-12-17T11:40:08.268Z,15.90
2022-12-17T11:43:40.186Z,13.00
2022-12-17T11:47:10.687Z,13.23
2022-12-17T11:50:42.943Z,10.47
2022-12-17T11:54:18.587Z,11.20
2022-12-17T11:57:47.447Z,10.73
2022-12-17T12:01:22.885Z,9.50
2022-12-17T12:05:04.221Z,13.27
2022-12-17T12:08:37.891Z,13.60
2022-12-17T12:12:13.027Z,28.63
2022-12-17T12:15:48.500Z,20.93
2022-12-17T12:19:24.626Z,15.97
2022-12-17T12:22:56.258Z,10.30
2022-12-17T12:26:32.273Z,9.80
2022-12-17T12:30:14.110Z,10.90
2022-12-17T12:33:50.764Z,6.73
2022-12-17T12:37:18.037Z,13.30
2022-12-17T12:40:53.153Z,11.37
2022-12-17T12:44:19.553Z,16.30
2022-12-17T12:47:55.393Z,9.87
2022-12-17T12:51:33.705Z,9.10
2022-12-17T12:55:10.880Z,10.97
2022-12-17T12:58:45.356Z,17.43
2022-12-17T13:02:24.266Z,16.37
2022-12-17T13:05:39.117Z,10.53
2022-12-17T13:08:45.285Z,17.77
2022-12-17T13:11:55.768Z,15.00
2022-12-17T13:15:19.617Z,19.20
2022-12-17T13:18:31.200Z,22.17
2022-12-17T13:21:39.315Z,24.27
2022-12-17T13:24:47.758Z,27.70
2022-12-17T13:27:54.304Z,21.20
2022-12-17T13:31:07.311Z,14.13
2022-12-17T13:34:20.454Z,23.10
2022-12-17T13:37:41.395Z,19.27
2022-12-17T13:40:57.972Z,21.73
2022-12-17T13:44:18.452Z,27.00
2022-12-17T13:47:26.392Z,19.90
2022-12-17T13:50:34.661Z,15.30
2022-12-17T13:53:53.997Z,14.83
2022-12-17T13:57:09.719Z,18.03
2022-12-17T14:00:22.938Z,14.03
2022-12-17T14:03:56.504Z,14.97
2022-12-17T14:07:00.019Z,11.30
2022-12-17T14:10:17.065Z,13.50
2022-12-17T14:13:23.419Z,12.13
2022-12-17T14:16:30.402Z,18.53
2022-12-17T14:19:38.362Z,18.23
2022-12-17T14:22:51.295Z,23.87
2022-12-17T14:25:59.842Z,16.77
2022-12-17T14:29:14.306Z,17.67
2022-12-17T14:32:26.485Z,18.27
2022-12-17T14:35:37.422Z,11.47
2022-12-17T14:38:54.694Z,13.00
2022-12-17T14:42:29.761Z,16.93
2022-12-17T14:45:56.562Z,17.47
2022-12-17T14:49:06.093Z,18.97
2022-12-17T14:52:15.793Z,18.03
2022-12-17T14:55:37.417Z,15.47
2022-12-17T14:58:47.924Z,21.10
2022-12-17T15:01:56.354Z,45.20
2022-12-17T15:05:04.012Z,80.40
2022-12-17T15:08:12.876Z,55.80
2022-12-17T15:11:21.999Z,56.87
2022-12-17T15:14:29.907Z,55.50
2022-12-17T15:17:36.346Z,46.17
2022-12-17T15:20:43.073Z,42.27
2022-12-17T15:23:50.097Z,61.77
2022-12-17T15:26:56.483Z,51.57
2022-12-17T15:30:05.868Z,84.03
2022-12-17T15:33:12.692Z,47.43
2022-12-17T15:36:19.258Z,75.33
2022-12-17T15:39:25.278Z,65.00
2022-12-17T15:42:49.514Z,48.50
2022-12-17T15:46:02.503Z,52.67
2022-12-17T15:49:08.599Z,50.20
2022-12-17T15:52:15.610Z,48.43
2022-12-17T15:55:21.892Z,50.10
2022-12-17T15:58:28.308Z,34.83
2022-12-17T16:01:36.785Z,32.80
2022-12-17T16:04:43.116Z,42.83
2022-12-17T16:07:49.342Z,36.70
2022-12-17T16:10:55.318Z,42.10
2022-12-17T16:14:01.615Z,50.67
2022-12-17T16:17:09.468Z,41.23
2022-12-17T16:20:15.797Z,41.57
2022-12-17T16:23:22.685Z,39.03
2022-12-17T16:26:29.304Z,31.53
2022-12-17T16:29:35.693Z,17.77
2022-12-17T16:32:43.588Z,19.27
2022-12-17T16:35:52.281Z,21.63
2022-12-17T16:38:59.052Z,20.33
2022-12-17T16:42:05.584Z,36.13
2022-12-17T16:45:12.387Z,23.03
2022-12-17T16:48:20.546Z,39.17
2022-12-17T16:51:29.773Z,50.83
2022-12-17T16:54:36.207Z,54.90
2022-12-17T16:57:42.282Z,68.43
2022-12-17T17:00:55.349Z,60.50
2022-12-17T17:04:04.571Z,62.10
2022-12-17T17:07:11.066Z,92.17
2022-12-17T17:10:17.408Z,73.93
2022-12-17T17:13:23.897Z,73.33
2022-12-17T17:16:30.529Z,65.73
2022-12-17T17:19:38.722Z,53.33
2022-12-17T17:22:45.155Z,56.53
2022-12-17T17:25:57.585Z,54.97
2022-12-17T17:29:05.695Z,54.03
2022-12-17T17:32:13.266Z,61.77
2022-12-17T17:35:21.289Z,56.60
2022-12-17T17:38:27.589Z,72.87
2022-12-17T17:41:35.247Z,78.73
2022-12-17T17:44:41.578Z,72.50
2022-12-17T17:47:48.151Z,70.80
2022-12-17T17:51:03.629Z,82.40
2022-12-17T17:54:14.235Z,94.17
2022-12-17T17:57:21.317Z,104.97
2022-12-17T18:00:27.793Z,122.33
2022-12-17T18:03:34.481Z,87.73
2022-12-17T18:07:02.706Z,66.87
2022-12-17T18:10:11.212Z,52.77
2022-12-17T18:13:34.955Z,48.73
2022-12-17T18:16:43.255Z,29.70
2022-12-17T18:19:50.350Z,46.10
2022-12-17T18:22:57.831Z,62.93
2022-12-17T18:26:10.019Z,54.00
2022-12-17T18:29:17.999Z,39.13
2022-12-17T18:32:24.325Z,48.60
2022-12-17T18:35:30.469Z,71.27
2022-12-17T18:38:38.330Z,56.80
2022-12-17T18:42:03.156Z,45.20
2022-12-17T18:45:10.058Z,40.97
2022-12-17T18:48:16.008Z,40.37
2022-12-17T18:51:23.274Z,53.90
2022-12-17T18:54:33.020Z,56.90
2022-12-17T18:57:39.258Z,46.77
2022-12-17T19:00:45.419Z,43.87
2022-12-17T19:03:51.638Z,46.77
2022-12-17T19:06:57.621Z,33.83
2022-12-17T19:10:05.810Z,28.83
2022-12-17T19:13:12.269Z,28.63
2022-12-17T19:16:20.830Z,37.50
2022-12-17T19:19:27.961Z,79.03
2022-12-17T19:22:34.243Z,32.47
2022-12-17T19:25:42.110Z,33.63
2022-12-17T19:28:50.483Z,41.73
2022-12-17T19:31:57.028Z,58.07
2022-12-17T19:35:03.617Z,85.03
2022-12-17T19:38:09.969Z,77.97
2022-12-17T19:41:19.315Z,79.67
2022-12-17T19:44:27.002Z,78.73
2022-12-17T19:47:33.382Z,80.90
2022-12-17T19:50:39.900Z,79.47
2022-12-17T19:53:47.314Z,55.33
2022-12-17T19:56:55.639Z,64.97
2022-12-17T20:00:01.998Z,55.50
2022-12-17T20:03:08.607Z,54.60
2022-12-17T20:06:16.342Z,54.60
2022-12-17T20:09:23.264Z,48.83
2022-12-17T20:12:30.909Z,33.30
2022-12-17T20:15:37.090Z,18.63
2022-12-17T20:18:43.801Z,20.73
2022-12-17T20:21:50.446Z,24.57
2022-12-17T20:24:57.058Z,31.17
2022-12-17T20:28:04.823Z,36.00
2022-12-17T20:31:11.403Z,39.23
2022-12-17T20:34:19.098Z,36.27
2022-12-17T20:37:25.568Z,37.63
2022-12-17T20:40:31.610Z,36.17
2022-12-17T20:43:40.069Z,35.10
2022-12-17T20:46:46.245Z,34.60
2022-12-17T20:49:52.150Z,36.97
2022-12-17T20:52:58.275Z,39.23
2022-12-17T20:56:07.634Z,51.17
2022-12-17T20:59:17.809Z,48.60
2022-12-17T21:02:24.506Z,40.77
2022-12-17T21:05:31.154Z,48.13
2022-12-17T21:08:38.176Z,52.80
2022-12-17T21:11:44.384Z,56.00
2022-12-17T21:14:52.016Z,59.77
2022-12-17T21:17:58.154Z,65.93
2022-12-17T21:21:07.445Z,57.23
2022-12-17T21:24:13.517Z,57.37
2022-12-17T21:27:20.679Z,57.40
2022-12-17T21:30:28.450Z,53.10
2022-12-17T21:33:34.860Z,53.53
2022-12-17T21:36:45.291Z,52.70
2022-12-17T21:39:56.515Z,46.07
2022-12-17T21:43:06.225Z,48.83
2022-12-17T21:46:15.343Z,44.20
2022-12-17T21:49:21.826Z,26.63
2022-12-17T21:52:28.357Z,16.53
2022-12-17T21:55:34.881Z,12.37
2022-12-17T21:58:41.964Z,9.83
2022-12-17T22:01:51.106Z,9.57
2022-12-17T22:04:57.821Z,8.20
2022-12-17T22:08:04.780Z,8.77
2022-12-17T22:11:12.202Z,8.20
2022-12-17T22:14:21.192Z,7.30
2022-12-17T22:17:28.912Z,6.33
2022-12-17T22:20:35.148Z,7.43
2022-12-17T22:23:43.341Z,7.90
2022-12-17T22:26:50.095Z,8.27
2022-12-17T22:30:14.104Z,7.37
2022-12-17T22:34:06.604Z,7.33
2022-12-17T22:39:25.147Z,27.50
2022-12-17T22:44:30.302Z,12.73
2022-12-17T22:44:51.401Z,14.83
2022-12-17T22:47:07.331Z,11.10
2022-12-17T22:50:15.286Z,7.17
2022-12-17T22:53:22.785Z,13.20
2022-12-17T22:56:51.985Z,11.83
2022-12-17T22:59:56.059Z,8.77
2022-12-17T23:03:03.125Z,10.43
2022-12-17T23:06:13.225Z,10.07
2022-12-17T23:09:21.213Z,13.67
2022-12-17T23:12:44.980Z,16.97
2022-12-17T23:15:53.192Z,22.27
2022-12-17T23:19:01.599Z,23.93
2022-12-17T23:22:09.453Z,17.03
2022-12-17T23:25:16.817Z,18.20
2022-12-17T23:28:23.157Z,14.63
2022-12-17T23:31:33.297Z,11.37
2022-12-17T23:34:39.703Z,17.20
2022-12-17T23:37:47.241Z,15.57
2022-12-17T23:40:53.367Z,18.40
2022-12-17T23:44:00.304Z,12.87
2022-12-17T23:47:07.022Z,19.63
2022-12-17T23:50:13.476Z,17.23
2022-12-17T23:53:21.427Z,13.17
2022-12-17T23:56:29.179Z,12.37
2022-12-17T23:59:35.480Z,15.33
